Time;durP1;ratioP1;P1;durP2;ratioP2;P2;SDS_P1;SDS_P2;PMS_P1;PMS_P2;Temp;Humidity;BMP_temperature;BMP_pressure;BME280_temperature;BME280_humidity;BME280_pressure;Samples;Min_cycle;Max_cycle;Signal;HPM_P1;HPM_P2
2022/04/28 00:00:40;;;;;;;11.77;6.65;;;;;;;6.16;100.00;101843.56;5999308;29;20056;-90
2022/04/28 00:03:42;;;;;;;14.90;6.78;;;;;;;6.17;100.00;101842.66;6000919;29;20053;-90
2022/04/28 00:06:45;;;;;;;11.32;6.57;;;;;;;6.14;100.00;101844.50;6015410;29;20161;-90
2022/04/28 00:09:47;;;;;;;9.80;6.13;;;;;;;6.09;100.00;101843.81;6013673;29;20053;-90
2022/04/28 00:12:49;;;;;;;8.65;6.00;;;;;;;5.98;100.00;101844.25;6001534;29;20068;-90
2022/04/28 00:15:51;;;;;;;8.13;5.93;;;;;;;5.86;100.00;101844.69;5999095;29;20395;-90
2022/04/28 00:18:53;;;;;;;8.55;5.65;;;;;;;5.79;100.00;101847.50;6010646;29;20069;-90
2022/04/28 00:21:55;;;;;;;9.93;6.15;;;;;;;5.75;100.00;101853.63;6018237;29;20431;-90
2022/04/28 00:24:57;;;;;;;12.02;6.55;;;;;;;5.69;100.00;101848.75;6016929;29;20045;-90
2022/04/28 00:27:59;;;;;;;11.55;6.30;;;;;;;5.67;100.00;101844.56;6011344;29;20049;-91
2022/04/28 00:31:02;;;;;;;12.07;6.32;;;;;;;5.68;100.00;101851.34;5994368;29;21098;-90
2022/04/28 00:34:06;;;;;;;14.90;6.20;;;;;;;5.75;100.00;101852.81;6016726;29;20045;-90
2022/04/28 00:37:09;;;;;;;11.20;6.43;;;;;;;5.77;100.00;101848.47;6008095;29;20488;-91
2022/04/28 00:40:12;;;;;;;9.45;6.00;;;;;;;5.75;100.00;101856.22;6018399;29;20416;-90
2022/04/28 00:43:20;;;;;;;10.35;5.90;;;;;;;5.72;100.00;101853.75;6008233;29;20129;-90
2022/04/28 00:46:22;;;;;;;13.32;6.78;;;;;;;5.70;100.00;101857.28;6009148;29;20216;-90
2022/04/28 00:52:46;;;;;;;14.65;6.82;;;;;;;5.66;100.00;101853.97;6008984;29;20153;-90
2022/04/28 00:55:47;;;;;;;10.30;6.65;;;;;;;5.67;100.00;101850.53;6011443;29;20453;-90
2022/04/28 00:58:50;;;;;;;11.90;5.97;;;;;;;5.61;100.00;101861.00;5989237;29;20193;-90
2022/04/28 01:01:51;;;;;;;10.50;6.00;;;;;;;5.48;100.00;101859.78;6011446;29;20042;-90
2022/04/28 01:04:54;;;;;;;9.45;6.43;;;;;;;5.34;100.00;101861.13;6015185;29;20050;-90
2022/04/28 01:07:56;;;;;;;9.00;5.95;;;;;;;5.20;100.00;101860.78;5992435;29;20053;-91
2022/04/28 01:10:59;;;;;;;11.75;5.97;;;;;;;5.16;100.00;101859.19;6014147;29;20057;-90
2022/04/28 01:14:01;;;;;;;9.90;6.35;;;;;;;5.12;100.00;101857.66;6000480;29;20451;-90
2022/04/28 01:17:11;;;;;;;11.20;6.85;;;;;;;5.10;100.00;101862.00;6001267;29;20979;-90
2022/04/28 01:20:18;;;;;;;11.50;6.43;;;;;;;5.11;100.00;101855.97;5997541;29;20133;-91
2022/04/28 01:23:20;;;;;;;11.45;7.32;;;;;;;5.06;100.00;101857.84;6014623;29;20042;-91
2022/04/28 01:26:23;;;;;;;10.80;6.15;;;;;;;5.11;100.00;101861.91;6011349;29;20167;-90
2022/04/28 01:29:26;;;;;;;10.75;6.18;;;;;;;5.11;100.00;101861.09;6003131;29;20049;-90
2022/04/28 01:32:28;;;;;;;9.30;5.55;;;;;;;4.99;100.00;101864.91;5994945;29;20539;-90
2022/04/28 01:35:30;;;;;;;14.50;6.32;;;;;;;4.99;100.00;101871.78;6014529;29;20053;-90
2022/04/28 01:38:32;;;;;;;10.57;6.32;;;;;;;4.96;100.00;101865.00;6014945;29;20154;-90
2022/04/28 01:41:34;;;;;;;11.38;6.55;;;;;;;4.91;100.00;101867.72;6006699;29;20049;-90
2022/04/28 01:44:38;;;;;;;10.10;6.53;;;;;;;4.87;100.00;101867.88;5982197;29;1114626;-90
2022/04/28 01:47:41;;;;;;;9.23;5.57;;;;;;;4.85;100.00;101867.94;6001892;29;20052;-90
2022/04/28 01:54:58;;;;;;;13.02;6.25;;;;;;;4.87;100.00;101873.88;5996431;29;20602;-90
2022/04/28 01:58:07;;;;;;;11.15;6.85;;;;;;;4.93;100.00;101871.09;5991476;29;20195;-90
2022/04/28 02:01:27;;;;;;;12.50;6.47;;;;;;;4.93;100.00;101870.25;5999258;29;20058;-91
2022/04/28 02:04:30;;;;;;;9.27;5.70;;;;;;;4.86;100.00;101864.47;6009061;29;20124;-90
2022/04/28 02:07:32;;;;;;;12.25;5.93;;;;;;;4.84;100.00;101863.69;6010743;29;20082;-90
2022/04/28 02:10:34;;;;;;;12.50;5.97;;;;;;;4.77;100.00;101869.09;5998925;29;20136;-90
2022/04/28 02:13:40;;;;;;;12.13;6.25;;;;;;;4.77;100.00;101867.38;5999780;29;20065;-90
2022/04/28 02:17:11;;;;;;;9.98;6.38;;;;;;;4.74;100.00;101862.31;5965970;29;20053;-90
2022/04/28 02:20:12;;;;;;;10.98;6.15;;;;;;;4.77;100.00;101869.09;5950367;29;20142;-90
2022/04/28 02:23:17;;;;;;;12.40;6.53;;;;;;;4.74;100.00;101865.75;5968073;29;20113;-90
2022/04/28 02:26:20;;;;;;;11.15;6.18;;;;;;;4.79;100.00;101869.88;5956485;29;20125;-90
2022/04/28 02:29:22;;;;;;;12.27;6.25;;;;;;;4.78;100.00;101868.22;5939611;29;20062;-90
2022/04/28 02:33:08;;;;;;;11.27;6.15;;;;;;;4.68;100.00;101868.50;5954663;29;20251;-90
2022/04/28 02:35:48;;;;;;;10.52;5.65;;;;;;;4.69;100.00;101862.47;5971413;29;20253;-90
2022/04/28 02:38:52;;;;;;;12.40;5.85;;;;;;;4.69;100.00;101874.47;5953250;29;20052;-90
2022/04/28 02:41:54;;;;;;;10.75;5.50;;;;;;;4.69;100.00;101866.78;5964117;29;20062;-89
2022/04/28 02:44:55;;;;;;;15.73;5.88;;;;;;;4.65;100.00;101868.59;5952732;29;20062;-90
2022/04/28 02:47:57;;;;;;;14.32;6.40;;;;;;;4.60;100.00;101867.94;5960527;29;20054;-90
2022/04/28 02:51:00;;;;;;;12.00;5.70;;;;;;;4.64;100.00;101869.47;5962678;29;20039;-90
2022/04/28 02:54:05;;;;;;;11.95;5.93;;;;;;;4.68;100.00;101872.81;5974161;29;20060;-90
2022/04/28 02:57:11;;;;;;;9.98;5.50;;;;;;;4.68;100.00;101868.50;6014838;29;20060;-90
2022/04/28 03:00:14;;;;;;;10.48;5.63;;;;;;;4.63;100.00;101862.69;6006566;29;20484;-90
2022/04/28 03:03:35;;;;;;;8.90;5.43;;;;;;;4.59;100.00;101865.41;5997063;29;20042;-90
2022/04/28 03:13:22;;;;;;;11.30;5.15;;;;;;;4.48;100.00;101860.63;6021738;29;20088;-90
2022/04/28 03:16:28;;;;;;;11.63;5.93;;;;;;;4.48;100.00;101865.75;5991445;29;20056;-90
2022/04/28 03:19:34;;;;;;;11.07;5.20;;;;;;;4.45;100.00;101871.81;5995381;29;20058;-91
2022/04/28 03:22:36;;;;;;;10.88;6.20;;;;;;;4.41;100.00;101867.66;5988273;29;20069;-90
2022/04/28 03:25:38;;;;;;;16.15;5.68;;;;;;;4.36;100.00;101872.09;6006821;29;20042;-91
2022/04/28 03:28:41;;;;;;;10.80;5.72;;;;;;;4.35;100.00;101865.31;6018931;29;20718;-90
2022/04/28 03:31:44;;;;;;;8.75;5.03;;;;;;;4.32;100.00;101875.63;5989675;29;20198;-90
2022/04/28 03:34:53;;;;;;;10.90;5.85;;;;;;;4.26;100.00;101871.53;5999809;29;20386;-90
2022/04/28 03:37:58;;;;;;;11.18;5.45;;;;;;;4.25;100.00;101863.91;5995894;29;20053;-90
2022/04/28 03:41:02;;;;;;;8.80;5.47;;;;;;;4.16;100.00;101869.31;5979918;29;20480;-90
2022/04/28 03:44:04;;;;;;;10.43;5.57;;;;;;;4.13;100.00;101875.38;6003582;29;20416;-91
2022/04/28 03:47:06;;;;;;;10.00;5.07;;;;;;;4.09;100.00;101881.47;5994118;29;20728;-90
2022/04/28 03:50:08;;;;;;;10.45;5.07;;;;;;;4.04;100.00;101881.59;6000580;29;20049;-90
2022/04/28 03:53:11;;;;;;;11.43;5.50;;;;;;;4.00;100.00;101885.16;5998738;29;20058;-90
2022/04/28 03:56:12;;;;;;;12.82;5.60;;;;;;;3.99;100.00;101886.03;6016598;29;20782;-90
2022/04/28 03:59:14;;;;;;;8.90;5.28;;;;;;;3.96;100.00;101883.56;6012952;29;20378;-90
2022/04/28 04:02:35;;;;;;;7.53;5.05;;;;;;;4.03;100.00;101874.81;6009284;29;20409;-90
2022/04/28 04:05:37;;;;;;;7.70;4.93;;;;;;;4.02;100.00;101882.53;5974054;29;20788;-90
2022/04/28 04:08:39;;;;;;;8.45;4.93;;;;;;;4.05;100.00;101885.00;5999940;29;20053;-90
2022/04/28 04:11:48;;;;;;;9.18;4.78;;;;;;;4.07;100.00;101890.91;6000719;29;20180;-90
2022/04/28 04:14:52;;;;;;;7.85;5.03;;;;;;;3.98;100.00;101892.03;5996266;29;20041;-90
2022/04/28 04:17:54;;;;;;;12.52;5.43;;;;;;;4.02;100.00;101897.91;5992298;29;20611;-90
2022/04/28 04:20:59;;;;;;;9.50;5.00;;;;;;;4.02;100.00;101887.66;6018701;29;20046;-91
2022/04/28 04:24:02;;;;;;;7.70;5.25;;;;;;;4.03;100.00;101892.75;5996376;29;20136;-90
2022/04/28 04:27:07;;;;;;;9.27;5.05;;;;;;;4.03;100.00;101897.88;6012032;29;20050;-90
2022/04/28 04:33:49;;;;;;;10.63;5.43;;;;;;;4.08;100.00;101892.63;5999221;29;19932;-90
2022/04/28 04:36:52;;;;;;;8.60;5.07;;;;;;;4.09;100.00;101900.22;5998625;29;20723;-90
2022/04/28 04:39:54;;;;;;;7.07;5.07;;;;;;;4.11;100.00;101892.50;5985773;29;20069;-90
2022/04/28 04:42:57;;;;;;;9.30;4.93;;;;;;;4.09;100.00;101899.41;5997781;29;20057;-91
2022/04/28 04:45:59;;;;;;;8.90;5.07;;;;;;;4.13;100.00;101905.28;5998458;29;20210;-90
2022/04/28 04:49:19;;;;;;;8.63;4.77;;;;;;;4.15;100.00;101916.31;6000157;29;20057;-90
2022/04/28 04:52:29;;;;;;;11.10;5.15;;;;;;;4.17;100.00;101912.81;5997053;29;20359;-90
2022/04/28 04:55:36;;;;;;;8.15;5.10;;;;;;;4.25;100.00;101907.50;6011747;29;20670;-90
2022/04/28 04:58:40;;;;;;;10.43;5.50;;;;;;;4.26;100.00;101907.41;5999921;29;20053;-90
2022/04/28 05:01:42;;;;;;;8.27;5.28;;;;;;;4.26;100.00;101912.56;6010450;29;20258;-91
2022/04/28 05:05:03;;;;;;;11.32;5.47;;;;;;;4.31;100.00;101917.53;6013549;29;20058;-90
2022/04/28 05:08:14;;;;;;;11.07;5.38;;;;;;;4.35;100.00;101918.28;5989053;29;20062;-89
2022/04/28 05:11:28;;;;;;;10.55;5.72;;;;;;;4.39;100.00;101922.44;6001133;29;20064;-89
2022/04/28 05:14:55;;;;;;;14.23;6.07;;;;;;;4.46;100.00;101932.44;6013813;29;20045;-90
2022/04/28 05:18:03;;;;;;;10.10;5.53;;;;;;;4.56;100.00;101939.88;6000684;29;20050;-90
2022/04/28 05:21:35;;;;;;;10.15;5.90;;;;;;;4.60;100.00;101939.72;5996190;29;20057;-89
2022/04/28 05:24:55;;;;;;;11.75;5.55;;;;;;;4.70;100.00;101938.53;6020431;29;20049;-90
2022/04/28 05:28:17;;;;;;;11.25;5.32;;;;;;;4.74;100.00;101927.31;6016083;29;20049;-89
2022/04/28 05:31:57;;;;;;;14.40;5.68;;;;;;;4.86;100.00;101944.00;5943438;29;20086;-90
2022/04/28 05:35:27;;;;;;;13.75;5.50;;;;;;;4.93;100.00;101937.81;5882289;30;20125;-89
2022/04/28 05:38:29;;;;;;;15.23;6.80;;;;;;;5.02;100.00;101944.38;5847972;30;20111;-89
2022/04/28 05:41:32;;;;;;;16.33;6.30;;;;;;;5.01;100.00;101941.84;5876909;30;20075;-90
2022/04/28 05:47:58;;;;;;;11.68;5.95;;;;;;;5.13;100.00;101949.16;5862847;30;20063;-90
2022/04/28 05:51:01;;;;;;;15.02;7.38;;;;;;;5.08;100.00;101961.28;5873897;30;20056;-89
2022/04/28 05:54:03;;;;;;;14.32;6.63;;;;;;;5.17;100.00;101958.44;5852407;30;20502;-90
2022/04/28 05:57:06;;;;;;;13.65;6.55;;;;;;;5.19;100.00;101961.75;5918554;29;20137;-90
2022/04/28 06:00:09;;;;;;;12.23;6.53;;;;;;;5.27;100.00;101958.97;5943129;29;20051;-89
2022/04/28 06:03:17;;;;;;;14.00;6.50;;;;;;;5.32;100.00;101964.78;5935677;29;20051;-89
2022/04/28 06:06:33;;;;;;;12.40;6.95;;;;;;;5.46;100.00;101972.81;5930886;29;20066;-89
2022/04/28 06:09:37;;;;;;;10.68;6.80;;;;;;;5.54;100.00;101967.44;5927041;29;20063;-89
2022/04/28 06:12:41;;;;;;;14.38;7.18;;;;;;;5.63;100.00;101974.00;5987362;29;20053;-89
2022/04/28 06:15:45;;;;;;;11.55;5.97;;;;;;;5.79;100.00;101973.41;6003328;29;20057;-89
2022/04/28 06:19:07;;;;;;;11.13;6.38;;;;;;;5.89;100.00;101973.91;6016367;29;20049;-88
2022/04/28 06:22:38;;;;;;;10.13;6.38;;;;;;;6.14;100.00;101978.19;5972153;29;20097;-89
2022/04/28 06:25:40;;;;;;;15.48;6.75;;;;;;;6.12;100.00;101975.66;5949007;29;20061;-89
2022/04/28 06:28:42;;;;;;;15.88;6.18;;;;;;;6.28;100.00;101985.38;5964705;29;20050;-89
2022/04/28 06:31:44;;;;;;;23.58;6.78;;;;;;;6.22;100.00;101976.16;5954288;29;20058;-89
2022/04/28 06:35:21;;;;;;;13.43;6.82;;;;;;;6.27;100.00;101986.28;5962302;29;20571;-89
2022/04/28 06:38:24;;;;;;;14.13;6.50;;;;;;;6.35;100.00;101985.09;5956283;29;20214;-89
2022/04/28 06:41:27;;;;;;;11.85;7.90;;;;;;;6.32;100.00;101981.81;5945957;29;20191;-89
2022/04/28 06:44:33;;;;;;;12.65;6.57;;;;;;;6.39;100.00;101985.81;5962007;29;20057;-89
2022/04/28 06:47:54;;;;;;;10.60;6.72;;;;;;;6.52;100.00;101984.44;5968042;29;20062;-88
2022/04/28 06:51:16;;;;;;;11.65;7.03;;;;;;;6.58;100.00;101984.19;5960065;29;20911;-88
2022/04/28 06:54:47;;;;;;;15.88;6.88;;;;;;;6.67;100.00;101983.03;5953799;29;20100;-88
2022/04/28 06:57:55;;;;;;;13.43;6.57;;;;;;;6.79;100.00;101987.69;5964472;29;20098;-88
2022/04/28 07:01:06;;;;;;;12.13;6.75;;;;;;;6.92;100.00;101985.47;5955075;29;20534;-88
2022/04/28 07:04:10;;;;;;;13.35;5.72;;;;;;;7.09;100.00;101988.19;5969024;29;20074;-88
2022/04/28 07:07:13;;;;;;;10.27;5.32;;;;;;;7.25;100.00;101988.38;5971049;29;20046;-88
2022/04/28 07:10:16;;;;;;;15.77;6.70;;;;;;;7.25;100.00;101995.28;5991003;29;20145;-88
2022/04/28 07:13:21;;;;;;;13.70;5.93;;;;;;;7.36;100.00;101998.25;5975805;29;20050;-88
2022/04/28 07:16:55;;;;;;;11.75;6.40;;;;;;;7.41;100.00;102001.47;5929042;29;20513;-88
2022/04/28 07:19:59;;;;;;;11.45;5.93;;;;;;;7.43;100.00;102006.53;5902641;30;20514;-88
2022/04/28 07:23:03;;;;;;;13.05;6.53;;;;;;;7.62;100.00;102009.19;5920351;29;20082;-89
2022/04/28 07:26:06;;;;;;;13.98;6.35;;;;;;;7.74;100.00;102017.22;5906326;30;20489;-89
2022/04/28 07:29:07;;;;;;;14.25;6.88;;;;;;;7.77;98.40;102003.38;5926453;29;20078;-88
2022/04/28 07:32:32;;;;;;;11.75;6.05;;;;;;;7.92;99.78;102013.00;5929731;29;20063;-89
2022/04/28 07:35:49;;;;;;;13.15;5.90;;;;;;;7.98;96.65;102010.19;5943094;29;20442;-88
2022/04/28 07:39:09;;;;;;;16.25;6.47;;;;;;;8.02;97.77;102010.88;5940157;29;20954;-88
2022/04/28 07:42:33;;;;;;;12.93;6.90;;;;;;;7.96;100.00;102006.00;5929301;29;20192;-89
2022/04/28 07:45:35;;;;;;;13.27;6.43;;;;;;;8.11;98.49;102025.13;5928548;29;20051;-88
2022/04/28 07:48:43;;;;;;;11.10;5.75;;;;;;;8.49;93.16;102020.81;5954387;29;20051;-89
2022/04/28 07:51:45;;;;;;;9.85;5.93;;;;;;;8.38;95.66;102026.44;5957209;29;20459;-89
2022/04/28 07:54:47;;;;;;;14.55;6.70;;;;;;;8.40;95.28;102018.69;5994100;29;20056;-88
2022/04/28 07:57:52;;;;;;;11.77;6.00;;;;;;;8.36;96.27;102017.09;6002700;29;20075;-88
2022/04/28 08:01:14;;;;;;;14.63;6.55;;;;;;;8.39;96.71;102014.38;6006521;29;20661;-89
2022/04/28 08:04:17;;;;;;;12.45;5.90;;;;;;;8.53;95.10;102016.38;5996897;29;20242;-89
2022/04/28 08:07:28;;;;;;;12.93;7.03;;;;;;;8.71;92.45;102018.06;6006566;29;20112;-88
2022/04/28 08:10:30;;;;;;;12.18;6.20;;;;;;;8.66;94.17;102014.88;5996344;29;20409;-89
2022/04/28 08:13:34;;;;;;;9.32;4.90;;;;;;;8.76;91.06;102018.69;5996007;29;20602;-89
2022/04/28 08:16:56;;;;;;;10.45;4.07;;;;;;;8.79;86.37;102023.72;6005442;29;20464;-89
2022/04/28 08:19:58;;;;;;;13.77;5.85;;;;;;;8.92;87.05;102025.69;6000054;29;20056;-89
2022/04/28 08:23:01;;;;;;;13.88;5.45;;;;;;;8.88;88.86;102032.78;6001873;29;20041;-88
2022/04/28 08:26:04;;;;;;;8.95;4.53;;;;;;;9.01;89.11;102030.44;6005926;29;20049;-88
2022/04/28 08:29:06;;;;;;;12.88;5.30;;;;;;;9.06;88.67;102037.03;6006077;29;20564;-88
2022/04/28 08:32:12;;;;;;;13.15;5.20;;;;;;;9.25;85.49;102031.00;5985505;29;20089;-89
2022/04/28 08:35:13;;;;;;;10.13;5.13;;;;;;;9.26;86.96;102043.81;6016097;29;20166;-88
2022/04/28 08:38:19;;;;;;;11.25;5.40;;;;;;;9.43;86.67;102042.16;5963215;29;20499;-90
2022/04/28 08:41:32;;;;;;;14.88;5.70;;;;;;;9.48;85.62;102043.59;6010472;29;20379;-88
2022/04/28 08:44:59;;;;;;;10.13;5.35;;;;;;;9.52;86.83;102040.88;6008369;29;20447;-88
2022/04/28 08:48:21;;;;;;;10.70;6.05;;;;;;;9.64;86.38;102035.09;6011931;29;20057;-88
2022/04/28 08:51:40;;;;;;;9.30;4.88;;;;;;;9.68;86.71;102041.75;6010638;29;20064;-89
2022/04/28 08:54:44;;;;;;;12.32;5.30;;;;;;;9.87;83.48;102047.69;5996345;29;20049;-89
2022/04/28 08:57:47;;;;;;;9.15;5.00;;;;;;;9.84;86.16;102052.19;6013967;29;20496;-88
2022/04/28 09:00:50;;;;;;;9.40;5.45;;;;;;;9.97;84.84;102049.78;6014528;29;20050;-88
2022/04/28 09:04:19;;;;;;;14.55;6.13;;;;;;;10.03;84.02;102054.63;6015065;29;20073;-88
2022/04/28 09:07:48;;;;;;;17.80;5.93;;;;;;;10.00;85.58;102058.22;6006827;29;20054;-88
2022/04/28 09:11:21;;;;;;;12.77;6.10;;;;;;;10.01;85.41;102054.75;6018586;29;20045;-88
2022/04/28 09:14:55;;;;;;;12.57;5.95;;;;;;;10.17;84.61;102053.94;6010307;29;20164;-88
2022/04/28 09:18:04;;;;;;;12.57;5.63;;;;;;;10.23;84.61;102054.41;6008321;29;20457;-88
2022/04/28 09:21:06;;;;;;;10.07;6.10;;;;;;;10.45;82.97;102051.56;6015670;29;20311;-88
2022/04/28 09:24:10;;;;;;;9.57;5.53;;;;;;;10.53;82.00;102059.78;6008387;29;20049;-88
2022/04/28 09:27:13;;;;;;;9.65;5.70;;;;;;;10.46;83.09;102053.25;5995438;29;20727;-89
2022/04/28 09:30:19;;;;;;;9.85;5.93;;;;;;;10.54;83.96;102053.66;6016538;29;20050;-87
2022/04/28 09:33:30;;;;;;;10.07;5.72;;;;;;;10.61;83.11;102046.41;6013499;29;20160;-87
2022/04/28 09:36:49;;;;;;;9.23;5.72;;;;;;;10.68;83.51;102039.09;5996478;29;20369;-87
2022/04/28 09:43:20;;;;;;;13.40;6.30;;;;;;;10.78;79.81;102035.94;6005371;29;20477;-86
2022/04/28 09:46:23;;;;;;;12.13;6.78;;;;;;;10.85;78.63;102040.78;5980165;29;20049;-87
2022/04/28 09:49:29;;;;;;;11.25;6.10;;;;;;;10.86;78.44;102032.94;5991328;29;20046;-87
2022/04/28 09:52:54;;;;;;;13.68;6.93;;;;;;;11.01;77.48;102027.81;6014678;29;20057;-88
2022/04/28 09:56:16;;;;;;;11.98;7.20;;;;;;;11.10;77.89;102035.88;6009249;29;20548;-86
2022/04/28 09:59:29;;;;;;;10.57;6.00;;;;;;;11.14;77.71;102033.94;6001262;29;20198;-87
2022/04/28 10:02:34;;;;;;;11.30;6.15;;;;;;;11.26;76.19;102037.59;5990060;29;20497;-88
2022/04/28 10:05:38;;;;;;;17.05;7.20;;;;;;;11.30;76.94;102034.72;6009297;29;20398;-88
2022/04/28 10:09:02;;;;;;;10.90;6.47;;;;;;;11.35;77.25;102026.69;6018448;29;20057;-88
2022/04/28 10:12:07;;;;;;;11.48;6.55;;;;;;;11.40;76.29;102032.44;5995066;29;20491;-89
2022/04/28 10:15:33;;;;;;;11.02;6.15;;;;;;;11.51;75.04;102024.88;5963051;29;20159;-88
2022/04/28 10:18:41;;;;;;;11.88;6.50;;;;;;;11.56;76.17;102030.63;5995612;29;20599;-88
2022/04/28 10:22:07;;;;;;;11.55;5.97;;;;;;;11.64;76.33;102023.22;5984995;29;20910;-88
2022/04/28 10:33:04;;;;;;;11.20;6.70;;;;;;;11.98;69.94;102028.19;5995589;29;20046;-87
2022/04/28 10:36:16;;;;;;;13.90;6.68;;;;;;;12.00;71.79;102021.97;6002153;29;20178;-87
2022/04/28 10:39:32;;;;;;;13.15;7.13;;;;;;;12.06;69.67;102018.16;5998437;29;20049;-88
2022/04/28 10:42:35;;;;;;;14.75;6.85;;;;;;;12.26;70.23;102015.16;6013238;29;20407;-88
2022/04/28 10:45:43;;;;;;;13.13;7.40;;;;;;;12.34;69.91;102014.69;6010114;29;20065;-87
2022/04/28 10:48:47;;;;;;;11.68;7.40;;;;;;;12.47;72.35;102014.75;6013606;29;20046;-88
2022/04/28 10:51:57;;;;;;;14.07;8.25;;;;;;;12.44;70.83;102009.75;6015607;29;20136;-87
2022/04/28 10:55:01;;;;;;;14.45;7.32;;;;;;;12.44;71.00;102020.97;6019458;29;20403;-89
2022/04/28 10:58:21;;;;;;;13.30;7.03;;;;;;;12.56;70.39;102010.75;6010811;29;20049;-87
2022/04/28 11:01:26;;;;;;;14.40;7.20;;;;;;;12.68;70.06;102015.16;6014120;29;20045;-87
2022/04/28 11:04:28;;;;;;;11.43;7.22;;;;;;;12.79;70.31;102011.88;6012358;29;20049;-88
2022/04/28 11:07:31;;;;;;;15.00;7.57;;;;;;;12.94;70.59;102003.06;6014779;29;20120;-88
2022/04/28 11:11:07;;;;;;;10.73;7.60;;;;;;;13.10;69.36;102008.94;6013186;29;20052;-89
2022/04/28 11:14:09;;;;;;;15.25;8.43;;;;;;;13.25;66.81;102012.28;5985187;29;20822;-87
2022/04/28 11:17:13;;;;;;;12.55;7.47;;;;;;;13.31;66.62;102001.50;5999402;29;20915;-86
2022/04/28 11:20:19;;;;;;;13.77;7.78;;;;;;;13.38;66.99;102003.72;5986782;29;20080;-88
2022/04/28 11:23:37;;;;;;;18.20;7.93;;;;;;;13.49;63.78;102007.25;5985760;29;20814;-88
2022/04/28 11:26:53;;;;;;;11.10;7.65;;;;;;;13.31;65.67;102011.91;6008139;29;20053;-88
2022/04/28 11:30:12;;;;;;;15.80;7.75;;;;;;;13.30;67.12;102001.63;5983991;29;20128;-87
2022/04/28 11:33:14;;;;;;;13.10;7.40;;;;;;;13.46;65.99;102007.44;6014778;29;20093;-87
2022/04/28 11:36:28;;;;;;;9.68;7.50;;;;;;;13.45;63.59;101998.00;5998003;29;20490;-87
2022/04/28 11:39:33;;;;;;;15.20;8.23;;;;;;;13.63;63.89;102000.28;5993512;29;20397;-87
2022/04/28 11:42:36;;;;;;;12.23;7.80;;;;;;;13.75;62.39;102005.47;5997065;29;20053;-88
2022/04/28 11:45:38;;;;;;;15.48;8.43;;;;;;;13.76;60.82;101986.34;5998469;29;20105;-87
2022/04/28 11:48:41;;;;;;;13.98;8.43;;;;;;;13.76;63.35;101994.13;6000556;29;20049;-87
2022/04/28 11:51:43;;;;;;;14.80;8.23;;;;;;;13.82;65.25;101985.06;5984669;29;20037;-87
2022/04/28 11:54:49;;;;;;;16.52;8.90;;;;;;;14.11;64.23;101983.03;6009104;29;20056;-87
2022/04/28 11:57:51;;;;;;;12.43;8.18;;;;;;;14.17;59.44;101985.19;6000851;29;20561;-87
2022/04/28 12:00:56;;;;;;;13.15;8.30;;;;;;;14.31;61.44;101991.19;5998618;29;20042;-86
2022/04/28 12:04:03;;;;;;;15.05;9.15;;;;;;;14.55;58.86;101988.63;6006278;29;20069;-87
2022/04/28 12:07:17;;;;;;;14.68;8.35;;;;;;;14.69;59.98;101995.47;6009284;29;20641;-88
2022/04/28 12:14:22;;;;;;;12.63;8.50;;;;;;;15.04;58.06;101980.66;5999364;29;20279;-86
2022/04/28 12:21:32;;;;;;;14.43;8.50;;;;;;;15.05;56.16;101981.47;6000787;29;21267;-87
2022/04/28 12:24:34;;;;;;;17.38;8.80;;;;;;;14.89;55.98;101980.97;5931356;29;20073;-87
2022/04/28 12:27:51;;;;;;;13.15;8.13;;;;;;;15.16;54.50;101989.34;5931432;29;20440;-87
2022/04/28 12:30:53;;;;;;;12.93;7.85;;;;;;;15.14;51.98;101988.63;5919497;29;20071;-88
2022/04/28 12:34:10;;;;;;;12.90;7.93;;;;;;;15.04;52.92;101992.84;5939580;29;20604;-87
2022/04/28 12:37:22;;;;;;;;;;;;;;;15.17;55.00;101983.16;5931564;29;20559;-87
2022/04/28 12:40:24;;;;;;;10.85;7.63;;;;;;;15.43;50.57;101993.44;5932254;29;20103;-89
2022/04/28 12:43:40;;;;;;;13.27;6.93;;;;;;;15.30;51.00;101983.06;5938759;29;20502;-88
2022/04/28 12:46:45;;;;;;;9.77;6.20;;;;;;;15.42;49.20;101981.31;5919740;29;20214;-88
2022/04/28 12:49:48;;;;;;;11.75;6.75;;;;;;;15.75;49.61;101990.13;5934166;29;20518;-87
2022/04/28 12:52:51;;;;;;;11.30;6.68;;;;;;;15.97;49.47;101986.69;5870997;29;20391;-87
2022/04/28 12:56:02;;;;;;;10.55;7.07;;;;;;;16.17;49.67;101985.94;5748660;29;20424;-88
2022/04/28 12:59:08;;;;;;;10.18;6.50;;;;;;;16.15;48.43;101986.06;5919355;29;20497;-87
2022/04/28 13:02:11;;;;;;;10.63;6.15;;;;;;;16.19;48.03;101976.19;5901331;29;20516;-87
2022/04/28 13:05:19;;;;;;;9.45;6.13;;;;;;;16.31;47.05;101982.22;5894545;29;20409;-88
2022/04/28 13:08:37;;;;;;;9.98;5.90;;;;;;;16.39;46.62;101982.44;6003680;29;20053;-88
2022/04/28 13:11:40;;;;;;;9.65;6.53;;;;;;;16.61;48.33;101983.34;5975839;29;20339;-85
2022/04/28 13:14:43;;;;;;;10.68;6.13;;;;;;;16.77;46.79;101974.13;5944877;29;20457;-87
2022/04/28 13:17:45;;;;;;;9.75;5.65;;;;;;;16.90;44.44;101968.72;5970387;29;20769;-88
2022/04/28 13:20:47;;;;;;;12.48;6.13;;;;;;;16.96;44.48;101972.59;5990447;29;20424;-87
2022/04/28 13:23:49;;;;;;;8.05;5.43;;;;;;;17.04;46.15;101969.34;6008093;29;20050;-87
2022/04/28 13:26:52;;;;;;;11.90;6.38;;;;;;;17.25;44.92;101961.50;6007828;29;20057;-88
2022/04/28 13:29:53;;;;;;;12.70;6.25;;;;;;;17.12;44.39;101967.78;6007356;29;20045;-88
2022/04/28 13:32:55;;;;;;;9.82;5.72;;;;;;;17.21;45.35;101947.84;6017629;29;20049;-88
2022/04/28 13:36:08;;;;;;;11.40;4.90;;;;;;;17.50;43.33;101955.84;6018121;29;20132;-88
2022/04/28 13:39:09;;;;;;;6.00;4.50;;;;;;;17.47;44.52;101952.66;6000177;29;20045;-87
2022/04/28 13:42:12;;;;;;;8.18;5.70;;;;;;;17.66;45.13;101947.47;6011565;29;20427;-87
2022/04/28 13:45:14;;;;;;;13.18;5.60;;;;;;;17.88;46.63;101938.63;6001922;29;20489;-87
2022/04/28 13:48:16;;;;;;;11.45;5.75;;;;;;;18.19;44.26;101941.19;6001910;29;20500;-87
2022/04/28 13:51:18;;;;;;;10.57;5.85;;;;;;;18.32;45.26;101938.28;6005000;29;20237;-87
2022/04/28 13:54:20;;;;;;;10.02;5.60;;;;;;;18.45;45.69;101934.41;6013124;29;20052;-87
2022/04/28 13:57:22;;;;;;;8.27;6.50;;;;;;;18.47;44.05;101934.28;6005769;29;20033;-86
2022/04/28 14:00:25;;;;;;;10.02;6.03;;;;;;;18.56;42.68;101937.84;6001368;29;20144;-89
2022/04/28 14:03:29;;;;;;;10.18;5.38;;;;;;;18.41;43.71;101934.81;6008656;29;20046;-87
2022/04/28 14:06:32;;;;;;;8.70;5.82;;;;;;;18.34;45.27;101933.75;6006712;29;20041;-86
2022/04/28 14:09:34;;;;;;;8.32;5.70;;;;;;;18.45;43.67;101929.16;5997340;29;20041;-87
2022/04/28 14:12:37;;;;;;;9.07;6.22;;;;;;;18.55;41.31;101925.72;6000431;29;20508;-89
2022/04/28 14:15:40;;;;;;;10.27;6.03;;;;;;;18.54;44.38;101917.03;6008866;29;20045;-88
2022/04/28 14:18:42;;;;;;;12.00;5.63;;;;;;;18.62;43.12;101916.34;6000668;29;20045;-86
2022/04/28 14:21:44;;;;;;;10.57;6.00;;;;;;;18.74;45.43;101912.59;6010605;29;20719;-88
2022/04/28 14:24:52;;;;;;;7.60;5.25;;;;;;;18.91;42.61;101909.28;6005599;29;20193;-88
2022/04/28 14:27:54;;;;;;;9.88;5.20;;;;;;;19.04;41.55;101903.72;6010813;29;20106;-88
2022/04/28 14:30:56;;;;;;;10.50;4.90;;;;;;;19.21;41.20;101914.44;6003336;29;20539;-89
2022/04/28 14:34:21;;;;;;;7.82;4.68;;;;;;;19.34;41.86;101899.19;6005520;29;20132;-89
2022/04/28 14:37:23;;;;;;;9.50;5.78;;;;;;;19.29;38.98;101907.47;6007111;29;20046;-89
2022/04/28 14:40:25;;;;;;;7.40;4.75;;;;;;;19.26;38.93;101901.72;5998593;29;20053;-91
2022/04/28 14:43:27;;;;;;;10.82;5.50;;;;;;;19.19;37.93;101911.94;5990212;29;20171;-90
2022/04/28 14:46:29;;;;;;;7.40;4.68;;;;;;;19.11;37.86;101902.16;5997074;29;20046;-89
2022/04/28 14:52:51;;;;;;;;;;;;;;;19.31;36.06;101904.72;6009003;29;20049;-89
2022/04/28 14:55:53;;;;;;;6.45;4.88;;;;;;;19.46;37.28;101907.69;6007637;29;19935;-89
2022/04/28 14:58:55;;;;;;;8.35;4.82;;;;;;;19.37;35.44;101909.38;6000441;29;20057;-90
2022/04/28 15:01:57;;;;;;;6.00;4.45;;;;;;;19.44;36.27;101902.59;6008788;29;20754;-89
2022/04/28 15:04:59;;;;;;;6.88;3.92;;;;;;;19.54;33.07;101908.63;6020028;29;20056;-90
2022/04/28 15:08:01;;;;;;;7.22;5.03;;;;;;;19.10;34.62;101904.94;6005401;29;20038;-90